createdAt,value
2022-11-06T00:01:45.920Z,14.15
2022-11-06T00:04:13.184Z,14.30
2022-11-06T00:06:49.110Z,14.32
2022-11-06T00:09:19.506Z,15.30
2022-11-06T00:11:48.199Z,14.85
2022-11-06T00:14:16.123Z,15.93
2022-11-06T00:16:44.456Z,13.65
2022-11-06T00:19:11.895Z,13.50
2022-11-06T00:21:39.337Z,14.85
2022-11-06T00:24:08.067Z,15.77
2022-11-06T00:26:35.574Z,14.95
2022-11-06T00:29:03.901Z,14.52
2022-11-06T00:31:33.965Z,14.30
2022-11-06T00:34:02.852Z,13.85
2022-11-06T00:36:31.076Z,14.55
2022-11-06T00:38:59.285Z,14.30
2022-11-06T00:41:27.312Z,15.48
2022-11-06T00:43:57.152Z,13.77
2022-11-06T00:46:24.358Z,12.45
2022-11-06T00:48:53.265Z,14.65
2022-11-06T00:51:25.679Z,14.13
2022-11-06T00:53:57.678Z,13.48
2022-11-06T00:56:25.708Z,14.20
2022-11-06T00:58:53.269Z,13.65
2022-11-06T01:01:36.101Z,13.82
2022-11-06T01:04:06.841Z,13.70
2022-11-06T01:06:37.426Z,13.27
2022-11-06T01:09:05.789Z,14.10
2022-11-06T01:11:59.199Z,14.02
2022-11-06T01:14:23.738Z,13.75
2022-11-06T01:16:51.384Z,14.40
2022-11-06T01:19:20.327Z,13.30
2022-11-06T01:21:49.148Z,14.23
2022-11-06T01:24:19.078Z,13.88
2022-11-06T01:27:12.113Z,13.25
2022-11-06T01:29:33.654Z,13.98
2022-11-06T01:32:03.325Z,13.90
2022-11-06T01:34:30.469Z,14.07
2022-11-06T01:36:57.243Z,13.20
2022-11-06T01:39:24.121Z,14.13
2022-11-06T01:41:53.497Z,15.10
2022-11-06T01:44:34.999Z,15.73
2022-11-06T01:47:26.230Z,16.45
2022-11-06T01:50:01.492Z,14.75
2022-11-06T01:52:37.795Z,14.73
2022-11-06T01:55:33.485Z,14.80
2022-11-06T01:58:03.518Z,13.73
2022-11-06T02:00:31.263Z,15.27
2022-11-06T02:03:02.795Z,13.45
2022-11-06T02:05:32.157Z,15.73
2022-11-06T02:08:01.105Z,13.80
2022-11-06T02:10:46.270Z,13.30
2022-11-06T02:13:57.440Z,13.32
2022-11-06T02:17:18.516Z,12.25
2022-11-06T02:20:19.592Z,13.23
2022-11-06T02:23:25.991Z,11.90
2022-11-06T02:26:13.239Z,13.38
2022-11-06T02:28:47.912Z,13.35
2022-11-06T02:31:21.126Z,13.35
2022-11-06T02:33:54.770Z,13.23
2022-11-06T02:36:29.000Z,13.40
2022-11-06T02:39:01.961Z,14.15
2022-11-06T02:41:34.359Z,14.65
2022-11-06T02:44:06.310Z,13.73
2022-11-06T02:46:41.638Z,13.77
2022-11-06T02:49:20.293Z,13.18
2022-11-06T02:51:50.893Z,13.13
2022-11-06T02:54:21.608Z,13.00
2022-11-06T02:56:53.186Z,13.68
2022-11-06T02:59:51.192Z,13.88
2022-11-06T03:02:44.376Z,13.77
2022-11-06T03:05:23.761Z,14.90
2022-11-06T03:08:14.013Z,14.05
2022-11-06T03:11:06.500Z,14.43
2022-11-06T03:13:58.545Z,14.68
2022-11-06T03:16:56.465Z,13.27
2022-11-06T03:19:32.517Z,13.15
2022-11-06T03:22:26.054Z,13.57
2022-11-06T03:25:04.730Z,13.15
2022-11-06T03:27:47.275Z,13.75
2022-11-06T03:30:16.713Z,12.70
2022-11-06T03:33:12.043Z,14.10
2022-11-06T03:35:48.846Z,13.30
2022-11-06T03:38:24.257Z,14.75
2022-11-06T03:40:55.385Z,12.73
2022-11-06T03:43:27.173Z,12.45
2022-11-06T03:45:56.866Z,14.50
2022-11-06T03:48:32.087Z,15.23
2022-11-06T03:51:02.409Z,13.80
2022-11-06T03:53:46.986Z,13.60
2022-11-06T03:56:24.469Z,14.45
2022-11-06T03:58:52.132Z,13.20
2022-11-06T04:01:24.439Z,15.15
2022-11-06T04:04:07.305Z,14.80
2022-11-06T04:06:46.438Z,13.80
2022-11-06T04:09:34.417Z,13.57
2022-11-06T04:12:22.930Z,14.55
2022-11-06T04:14:55.296Z,13.73
2022-11-06T04:17:26.431Z,13.95
2022-11-06T04:20:00.360Z,13.65
2022-11-06T04:22:54.415Z,13.52
2022-11-06T04:26:02.619Z,13.90
2022-11-06T04:29:06.880Z,14.18
2022-11-06T04:31:55.728Z,13.32
2022-11-06T04:34:33.538Z,13.32
2022-11-06T04:37:09.834Z,14.02
2022-11-06T04:40:05.845Z,13.55
2022-11-06T04:42:41.371Z,14.38
2022-11-06T04:45:15.330Z,14.10
2022-11-06T04:47:44.297Z,15.07
2022-11-06T04:50:13.718Z,13.10
2022-11-06T04:52:41.784Z,13.85
2022-11-06T04:55:08.797Z,14.82
2022-11-06T04:57:35.837Z,15.52
2022-11-06T05:00:02.932Z,14.40
2022-11-06T05:02:30.139Z,14.48
2022-11-06T05:04:57.282Z,14.10
2022-11-06T05:07:24.473Z,13.48
2022-11-06T05:09:51.433Z,14.63
2022-11-06T05:12:18.358Z,19.88
2022-11-06T05:14:45.289Z,16.73
2022-11-06T05:17:13.353Z,16.60
2022-11-06T05:19:40.803Z,16.23
2022-11-06T05:22:26.490Z,14.93
2022-11-06T05:24:53.635Z,14.10
2022-11-06T05:27:20.446Z,15.07
2022-11-06T05:29:47.664Z,16.92
2022-11-06T05:32:14.666Z,17.83
2022-11-06T05:34:42.653Z,17.05
2022-11-06T05:37:09.465Z,19.77
2022-11-06T05:39:41.403Z,17.27
2022-11-06T05:42:09.181Z,17.63
2022-11-06T05:44:37.814Z,15.73
2022-11-06T05:47:04.849Z,15.82
2022-11-06T05:49:32.686Z,17.77
2022-11-06T05:51:59.685Z,17.42
2022-11-06T05:54:26.794Z,31.70
2022-11-06T05:56:53.956Z,36.92
2022-11-06T05:59:21.095Z,32.05
2022-11-06T06:01:48.166Z,24.63
2022-11-06T06:04:15.372Z,23.15
2022-11-06T06:06:42.501Z,16.50
2022-11-06T06:09:09.621Z,16.05
2022-11-06T06:11:36.695Z,15.10
2022-11-06T06:14:03.913Z,14.90
2022-11-06T06:16:31.229Z,15.18
2022-11-06T06:18:58.302Z,15.93
2022-11-06T06:21:25.177Z,16.48
2022-11-06T06:23:52.221Z,15.38
2022-11-06T06:26:20.821Z,14.63
2022-11-06T06:28:49.696Z,15.27
2022-11-06T06:31:16.895Z,14.32
2022-11-06T06:33:43.730Z,14.25
2022-11-06T06:36:11.242Z,14.10
2022-11-06T06:38:38.366Z,14.10
2022-11-06T06:41:07.373Z,14.50
2022-11-06T06:43:35.392Z,14.02
2022-11-06T06:46:04.335Z,15.00
2022-11-06T06:48:31.533Z,13.90
2022-11-06T06:51:02.597Z,15.43
2022-11-06T06:53:29.949Z,14.15
2022-11-06T06:56:00.266Z,14.65
2022-11-06T06:58:31.356Z,15.30
2022-11-06T07:01:04.246Z,16.02
2022-11-06T07:03:32.322Z,16.70
2022-11-06T07:05:59.257Z,15.30
2022-11-06T07:08:27.263Z,16.13
2022-11-06T07:11:01.805Z,16.50
2022-11-06T07:13:35.429Z,16.48
2022-11-06T07:16:08.122Z,16.00
2022-11-06T07:18:36.037Z,17.33
2022-11-06T07:21:07.966Z,19.38
2022-11-06T07:23:36.333Z,19.42
2022-11-06T07:26:04.456Z,18.20
2022-11-06T07:28:32.630Z,17.98
2022-11-06T07:31:01.051Z,15.07
2022-11-06T07:33:28.407Z,14.85
2022-11-06T07:35:55.802Z,14.35
2022-11-06T07:38:22.955Z,14.85
2022-11-06T07:40:50.043Z,14.10
2022-11-06T07:43:17.077Z,14.15
2022-11-06T07:45:44.956Z,14.43
2022-11-06T07:48:12.245Z,14.10
2022-11-06T07:50:39.492Z,15.13
2022-11-06T07:53:06.792Z,14.68
2022-11-06T07:55:37.776Z,16.75
2022-11-06T07:58:08.017Z,16.38
2022-11-06T08:00:35.166Z,17.80
2022-11-06T08:03:02.121Z,17.85
2022-11-06T08:05:29.254Z,18.48
2022-11-06T08:07:57.277Z,17.45
2022-11-06T08:10:24.383Z,17.15
2022-11-06T08:12:51.426Z,19.23
2022-11-06T08:15:18.658Z,19.25
2022-11-06T08:17:45.668Z,20.08
2022-11-06T08:20:12.763Z,21.70
2022-11-06T08:22:40.030Z,22.63
2022-11-06T08:25:07.885Z,24.00
2022-11-06T08:27:34.699Z,21.90
2022-11-06T08:30:02.181Z,23.08
2022-11-06T08:32:29.385Z,22.83
2022-11-06T08:34:56.758Z,21.73
2022-11-06T08:37:23.751Z,22.73
2022-11-06T08:39:50.807Z,22.17
2022-11-06T08:42:17.964Z,22.60
2022-11-06T08:44:44.847Z,22.25
2022-11-06T08:47:11.689Z,21.95
2022-11-06T08:49:38.880Z,21.88
2022-11-06T08:52:05.948Z,20.63
2022-11-06T08:54:32.989Z,21.08
2022-11-06T08:57:00.752Z,21.27
2022-11-06T08:59:28.021Z,20.20
2022-11-06T09:01:56.491Z,20.67
2022-11-06T09:04:23.567Z,20.33
2022-11-06T09:06:50.545Z,18.40
2022-11-06T09:09:17.572Z,20.38
2022-11-06T09:11:44.600Z,19.38
2022-11-06T09:14:12.526Z,18.75
2022-11-06T09:16:39.318Z,19.48
2022-11-06T09:19:06.318Z,20.30
2022-11-06T09:21:33.393Z,20.60
2022-11-06T09:24:00.554Z,21.20
2022-11-06T09:26:27.505Z,21.92
2022-11-06T09:28:54.469Z,19.85
2022-11-06T09:31:21.715Z,21.77
2022-11-06T09:33:48.661Z,21.23
2022-11-06T09:36:15.929Z,20.83
2022-11-06T09:38:42.872Z,21.10
2022-11-06T09:41:22.448Z,22.17
2022-11-06T09:44:06.176Z,21.63
2022-11-06T09:46:41.255Z,21.13
2022-11-06T09:49:31.256Z,22.00
2022-11-06T09:51:58.363Z,21.00
2022-11-06T09:54:49.676Z,22.17
2022-11-06T09:57:40.285Z,21.27
2022-11-06T10:00:12.185Z,21.73
2022-11-06T10:02:45.384Z,21.17
2022-11-06T10:05:28.181Z,19.98
2022-11-06T10:08:04.314Z,21.70
2022-11-06T10:10:43.588Z,20.90
2022-11-06T10:13:28.531Z,21.58
2022-11-06T10:16:07.866Z,22.02
2022-11-06T10:18:53.631Z,20.88
2022-11-06T10:21:20.387Z,20.52
2022-11-06T10:23:58.140Z,19.05
2022-11-06T10:26:38.264Z,19.17
2022-11-06T10:29:28.704Z,18.45
2022-11-06T10:31:55.709Z,18.08
2022-11-06T10:34:42.895Z,18.20
2022-11-06T10:37:22.797Z,17.33
2022-11-06T10:39:50.558Z,16.88
2022-11-06T10:42:20.810Z,17.60
2022-11-06T10:45:04.057Z,17.30
2022-11-06T10:47:53.235Z,16.38
2022-11-06T10:50:20.700Z,20.67
2022-11-06T10:53:05.756Z,19.98
2022-11-06T10:55:36.552Z,18.58
2022-11-06T10:58:15.870Z,17.00
2022-11-06T11:00:43.692Z,17.05
2022-11-06T11:03:24.283Z,15.63
2022-11-06T11:05:51.318Z,16.90
2022-11-06T11:08:51.952Z,16.42
2022-11-06T11:11:23.286Z,15.45
2022-11-06T11:16:26.169Z,15.32
2022-11-06T11:18:54.006Z,14.30
2022-11-06T11:21:21.030Z,14.57
2022-11-06T11:24:11.972Z,14.77
2022-11-06T11:26:48.665Z,15.73
2022-11-06T11:29:23.946Z,15.40
2022-11-06T11:31:57.678Z,14.98
2022-11-06T11:34:28.502Z,15.48
2022-11-06T11:37:08.529Z,14.93
2022-11-06T11:39:44.377Z,15.25
2022-11-06T11:42:28.822Z,14.43
2022-11-06T11:45:11.059Z,14.35
2022-11-06T11:47:40.546Z,13.90
2022-11-06T11:50:17.137Z,14.15
2022-11-06T11:52:51.110Z,15.52
2022-11-06T11:55:22.856Z,14.90
2022-11-06T11:57:52.845Z,14.48
2022-11-06T12:00:22.965Z,13.40
2022-11-06T12:02:55.293Z,13.50
2022-11-06T12:05:41.300Z,13.70
2022-11-06T12:08:22.192Z,13.70
2022-11-06T12:10:50.327Z,13.90
2022-11-06T12:13:25.198Z,14.18
2022-11-06T12:16:04.744Z,14.93
2022-11-06T12:18:42.752Z,13.88
2022-11-06T12:21:33.146Z,14.52
2022-11-06T12:24:28.148Z,14.57
2022-11-06T12:27:13.592Z,14.23
2022-11-06T12:29:53.615Z,15.18
2022-11-06T12:32:40.051Z,14.50
2022-11-06T12:35:22.401Z,13.82
2022-11-06T12:38:04.917Z,14.02
2022-11-06T12:40:39.867Z,14.30
2022-11-06T12:43:37.253Z,13.95
2022-11-06T12:46:19.692Z,15.50
2022-11-06T12:48:56.050Z,13.55
2022-11-06T12:51:44.741Z,15.30
2022-11-06T12:54:24.735Z,14.15
2022-11-06T12:57:01.937Z,13.95
2022-11-06T12:59:54.673Z,15.70
2022-11-06T13:02:50.197Z,14.80
2022-11-06T13:05:29.004Z,15.65
2022-11-06T13:08:15.389Z,14.55
2022-11-06T13:11:01.759Z,15.00
2022-11-06T13:13:44.125Z,15.65
2022-11-06T13:16:14.072Z,14.88
2022-11-06T13:18:53.017Z,14.68
2022-11-06T13:21:39.812Z,14.88
2022-11-06T13:24:15.175Z,15.55
2022-11-06T13:27:02.239Z,14.00
2022-11-06T13:29:30.908Z,13.88
2022-11-06T13:32:03.332Z,13.40
2022-11-06T13:34:36.490Z,13.77
2022-11-06T13:37:12.700Z,14.75
2022-11-06T13:39:46.671Z,13.98
2022-11-06T13:42:42.447Z,14.32
2022-11-06T13:45:14.909Z,14.45
2022-11-06T13:47:57.413Z,12.45
2022-11-06T13:50:40.314Z,13.60
2022-11-06T13:53:27.650Z,12.93
2022-11-06T13:56:20.926Z,13.23
2022-11-06T13:58:51.375Z,13.57
2022-11-06T14:01:44.031Z,13.50
2022-11-06T14:04:35.889Z,13.70
2022-11-06T14:07:05.889Z,12.88
2022-11-06T14:09:36.230Z,13.18
2022-11-06T14:12:13.960Z,13.65
2022-11-06T14:14:42.651Z,13.85
2022-11-06T14:17:17.696Z,14.98
2022-11-06T14:19:50.783Z,15.77
2022-11-06T14:22:36.744Z,15.55
2022-11-06T14:25:30.335Z,14.18
2022-11-06T14:27:58.459Z,16.63
2022-11-06T14:30:57.807Z,17.05
2022-11-06T14:33:41.237Z,14.93
2022-11-06T14:36:35.620Z,13.63
2022-11-06T14:39:04.421Z,13.95
2022-11-06T14:41:34.202Z,14.55
2022-11-06T14:44:31.073Z,13.35
2022-11-06T14:47:02.565Z,12.77
2022-11-06T14:49:42.487Z,12.60
2022-11-06T14:52:16.052Z,11.77
2022-11-06T14:55:24.403Z,11.30
2022-11-06T14:57:53.689Z,10.95
2022-11-06T15:00:45.094Z,10.95
2022-11-06T15:03:52.613Z,10.07
2022-11-06T15:06:19.858Z,10.38
2022-11-06T15:08:46.886Z,10.10
2022-11-06T15:11:47.883Z,15.23
2022-11-06T15:14:15.287Z,19.20
2022-11-06T15:16:45.364Z,14.02
2022-11-06T15:19:19.571Z,16.92
2022-11-06T15:21:56.872Z,21.58
2022-11-06T15:28:05.125Z,12.05
2022-11-06T15:30:42.550Z,12.18
2022-11-06T15:33:16.758Z,10.70
2022-11-06T15:35:46.665Z,11.98
2022-11-06T15:38:37.959Z,14.13
2022-11-06T15:41:07.675Z,14.82
2022-11-06T15:43:39.155Z,13.40
2022-11-06T15:46:12.027Z,12.05
2022-11-06T15:48:51.073Z,15.70
2022-11-06T15:51:28.041Z,12.98
2022-11-06T15:53:55.772Z,17.25
2022-11-06T15:56:31.342Z,18.30
2022-11-06T15:59:24.828Z,18.15
2022-11-06T16:01:51.743Z,29.45
2022-11-06T16:04:24.120Z,21.90
2022-11-06T16:06:54.000Z,13.13
2022-11-06T16:09:29.793Z,16.08
2022-11-06T16:11:58.386Z,21.00
2022-11-06T16:14:25.272Z,15.90
2022-11-06T16:16:56.429Z,16.35
2022-11-06T16:19:23.262Z,16.60
2022-11-06T16:22:17.958Z,16.33
2022-11-06T16:25:00.380Z,14.60
2022-11-06T16:27:27.862Z,13.38
2022-11-06T16:30:01.649Z,12.95
2022-11-06T16:32:31.586Z,13.48
2022-11-06T16:35:00.173Z,13.40
2022-11-06T16:37:29.762Z,15.25
2022-11-06T16:40:00.209Z,13.13
2022-11-06T16:42:33.419Z,17.77
2022-11-06T16:45:02.021Z,16.77
2022-11-06T16:47:28.935Z,14.25
2022-11-06T16:49:57.771Z,15.38
2022-11-06T16:52:34.098Z,14.90
2022-11-06T16:55:17.151Z,15.05
2022-11-06T16:57:46.857Z,15.23
2022-11-06T17:00:19.784Z,13.30
2022-11-06T17:02:50.927Z,15.95
2022-11-06T17:07:46.330Z,29.15
2022-11-06T17:10:35.131Z,31.65
2022-11-06T17:13:18.765Z,43.22
2022-11-06T17:15:49.416Z,20.08
2022-11-06T17:18:22.494Z,47.67
2022-11-06T17:20:58.057Z,20.27
2022-11-06T17:23:26.588Z,33.08
2022-11-06T17:25:57.217Z,62.22
2022-11-06T17:28:24.297Z,89.70
2022-11-06T17:30:51.836Z,37.90
2022-11-06T17:33:18.906Z,22.17
2022-11-06T17:35:48.525Z,21.25
2022-11-06T17:38:17.169Z,20.95
2022-11-06T17:40:45.373Z,17.52
2022-11-06T17:43:12.893Z,34.88
2022-11-06T17:45:42.239Z,36.50
2022-11-06T17:48:09.191Z,30.40
2022-11-06T17:50:56.213Z,19.02
2022-11-06T17:53:23.207Z,28.95
2022-11-06T17:55:50.128Z,17.95
2022-11-06T17:58:17.085Z,22.27
2022-11-06T18:00:44.440Z,15.57
2022-11-06T18:03:22.533Z,18.35
2022-11-06T18:05:49.540Z,22.40
2022-11-06T18:08:17.151Z,16.35
2022-11-06T18:10:44.428Z,12.88
2022-11-06T18:13:11.352Z,13.10
2022-11-06T18:15:38.414Z,12.52
2022-11-06T18:18:05.432Z,11.55
2022-11-06T18:20:32.250Z,14.57
2022-11-06T18:22:59.314Z,12.43
2022-11-06T18:25:26.142Z,11.15
2022-11-06T18:27:53.117Z,10.38
2022-11-06T18:30:19.943Z,11.50
2022-11-06T18:32:46.898Z,11.18
2022-11-06T18:35:13.668Z,11.32
2022-11-06T18:37:40.749Z,12.55
2022-11-06T18:40:08.411Z,11.40
2022-11-06T18:42:35.340Z,11.57
2022-11-06T18:45:02.209Z,10.57
2022-11-06T18:47:29.089Z,11.52
2022-11-06T18:49:56.281Z,11.60
2022-11-06T18:52:44.503Z,11.45
2022-11-06T18:55:10.297Z,11.07
2022-11-06T18:57:37.242Z,9.23
2022-11-06T19:00:05.201Z,10.70
2022-11-06T19:02:32.447Z,10.32
2022-11-06T19:04:59.882Z,10.80
2022-11-06T19:07:27.273Z,13.65
2022-11-06T19:09:54.347Z,12.27
2022-11-06T19:12:21.272Z,13.35
2022-11-06T19:14:48.285Z,13.57
2022-11-06T19:17:15.313Z,14.35
2022-11-06T19:19:42.388Z,11.65
2022-11-06T19:22:10.738Z,12.35
2022-11-06T19:24:37.681Z,10.63
2022-11-06T19:27:05.093Z,12.43
2022-11-06T19:29:32.450Z,11.30
2022-11-06T19:32:02.358Z,11.75
2022-11-06T19:34:30.754Z,11.52
2022-11-06T19:36:59.119Z,11.38
2022-11-06T19:39:26.001Z,10.00
2022-11-06T19:41:55.538Z,9.93
2022-11-06T19:44:22.407Z,10.07
2022-11-06T19:46:49.427Z,10.00
2022-11-06T19:49:22.543Z,9.50
2022-11-06T19:51:49.560Z,10.82
2022-11-06T19:54:17.151Z,9.82
2022-11-06T19:57:27.882Z,10.35
2022-11-06T19:59:31.012Z,11.68
2022-11-06T20:01:57.897Z,9.93
2022-11-06T20:04:25.145Z,12.52
2022-11-06T20:06:52.454Z,9.95
2022-11-06T20:09:19.629Z,9.43
2022-11-06T20:11:46.486Z,10.23
2022-11-06T20:14:16.673Z,10.32
2022-11-06T20:16:43.560Z,8.93
2022-11-06T20:19:10.964Z,8.57
2022-11-06T20:21:38.088Z,8.98
2022-11-06T20:24:05.260Z,9.75
2022-11-06T20:26:33.669Z,8.20
2022-11-06T20:29:01.203Z,7.93
2022-11-06T20:31:28.466Z,7.00
2022-11-06T20:33:57.696Z,7.43
2022-11-06T20:36:28.367Z,6.43
2022-11-06T20:38:59.449Z,6.72
2022-11-06T20:41:27.639Z,7.80
2022-11-06T20:43:55.599Z,6.80
2022-11-06T20:46:23.892Z,6.93
2022-11-06T20:48:51.554Z,6.88
2022-11-06T20:51:43.023Z,6.93
2022-11-06T20:54:30.211Z,6.80
2022-11-06T20:56:57.134Z,6.95
2022-11-06T20:59:23.997Z,7.78
2022-11-06T21:01:51.152Z,7.75
2022-11-06T21:04:18.284Z,6.75
2022-11-06T21:06:45.260Z,6.88
2022-11-06T21:09:12.338Z,6.43
2022-11-06T21:11:39.847Z,6.63
2022-11-06T21:14:06.712Z,7.00
2022-11-06T21:16:36.398Z,7.30
2022-11-06T21:19:04.980Z,6.22
2022-11-06T21:21:33.778Z,5.57
2022-11-06T21:24:02.252Z,6.22
2022-11-06T21:26:37.356Z,6.65
2022-11-06T21:29:07.428Z,6.80
2022-11-06T21:31:34.956Z,6.65
2022-11-06T21:34:03.550Z,5.72
2022-11-06T21:36:33.779Z,6.25
2022-11-06T21:39:07.937Z,6.57
2022-11-06T21:41:35.948Z,6.85
2022-11-06T21:44:05.152Z,6.78
2022-11-06T21:46:33.081Z,7.63
2022-11-06T21:49:00.204Z,7.00
2022-11-06T21:51:32.305Z,6.05
2022-11-06T21:54:18.706Z,6.03
2022-11-06T21:56:49.557Z,6.18
2022-11-06T21:59:19.805Z,5.38
2022-11-06T22:01:47.029Z,6.50
2022-11-06T22:04:14.405Z,6.32
2022-11-06T22:06:42.880Z,5.32
2022-11-06T22:09:11.557Z,6.10
2022-11-06T22:11:41.264Z,5.93
2022-11-06T22:14:12.107Z,6.07
2022-11-06T22:16:41.414Z,7.07
2022-11-06T22:19:09.884Z,7.30
2022-11-06T22:21:38.354Z,6.18
2022-11-06T22:24:06.296Z,6.30
2022-11-06T22:26:34.868Z,5.70
2022-11-06T22:29:05.502Z,6.25
2022-11-06T22:31:32.551Z,6.07
2022-11-06T22:33:59.831Z,5.47
2022-11-06T22:36:27.001Z,5.97
2022-11-06T22:38:54.333Z,5.85
2022-11-06T22:41:23.910Z,5.90
2022-11-06T22:43:52.001Z,5.22
2022-11-06T22:46:21.837Z,6.75
2022-11-06T22:48:49.931Z,5.85
2022-11-06T22:51:22.842Z,6.70
2022-11-06T22:53:50.640Z,6.85
2022-11-06T22:56:18.791Z,6.85
2022-11-06T22:58:46.064Z,6.28
2022-11-06T23:01:13.327Z,6.45
2022-11-06T23:03:40.608Z,5.32
2022-11-06T23:06:10.018Z,5.95
2022-11-06T23:08:44.197Z,6.78
2022-11-06T23:11:14.660Z,6.85
2022-11-06T23:13:41.598Z,5.82
2022-11-06T23:16:13.120Z,6.82
2022-11-06T23:21:16.769Z,6.10
2022-11-06T23:23:45.636Z,6.20
2022-11-06T23:26:14.811Z,6.50
2022-11-06T23:28:42.695Z,6.60
2022-11-06T23:31:11.854Z,6.35
2022-11-06T23:33:39.478Z,5.95
2022-11-06T23:36:12.245Z,6.70
2022-11-06T23:38:39.768Z,6.53
2022-11-06T23:41:45.603Z,6.63
2022-11-06T23:44:33.477Z,6.15
2022-11-06T23:47:01.350Z,6.35
2022-11-06T23:49:28.413Z,6.30
2022-11-06T23:51:55.642Z,6.40
2022-11-06T23:54:22.754Z,6.60
2022-11-06T23:56:49.676Z,6.70
2022-11-06T23:59:16.899Z,6.47
